Time;durP1;ratioP1;P1;durP2;ratioP2;P2;SDS_P1;SDS_P2;PMS_P1;PMS_P2;Temp;Humidity;BMP_temperature;BMP_pressure;BME280_temperature;BME280_humidity;BME280_pressure;Samples;Min_cycle;Max_cycle;Signal;HPM_P1;HPM_P2
2022/09/19 00:02:04;;;;;;;0.43;0.20;;;;;;;;;;5025293;28;20523;-64
2022/09/19 00:04:32;;;;;;;1.42;0.28;;;;;;;;;;5026367;28;20132;-64
2022/09/19 00:06:58;;;;;;;0.98;0.30;;;;;;;;;;5025840;28;20119;-64
2022/09/19 00:09:26;;;;;;;1.58;0.45;;;;;;;;;;5026620;28;20114;-64
2022/09/19 00:11:53;;;;;;;0.40;0.20;;;;;;;;;;5026465;28;20053;-64
2022/09/19 00:14:21;;;;;;;2.35;0.25;;;;;;;;;;5026166;28;20133;-64
2022/09/19 00:16:47;;;;;;;0.20;0.10;;;;;;;;;;5022268;28;20050;-64
2022/09/19 00:19:18;;;;;;;1.10;0.00;;;;;;;;;;5026176;28;20531;-64
2022/09/19 00:21:45;;;;;;;1.63;0.20;;;;;;;;;;5026963;28;20038;-64
2022/09/19 00:26:58;;;;;;;0.52;0.20;;;;;;;;;;5026882;28;20483;-64
2022/09/19 00:29:25;;;;;;;0.80;0.20;;;;;;;;;;5026578;28;20041;-64
2022/09/19 00:31:51;;;;;;;0.65;0.40;;;;;;;;;;5026331;28;20068;-64
2022/09/19 00:34:18;;;;;;;2.63;0.30;;;;;;;;;;5024913;28;20050;-64
2022/09/19 00:36:44;;;;;;;0.57;0.30;;;;;;;;;;5026450;28;20060;-64
2022/09/19 00:39:11;;;;;;;1.17;0.20;;;;;;;;;;5025640;28;20045;-64
2022/09/19 00:41:38;;;;;;;2.22;0.65;;;;;;;;;;5025131;28;20053;-64
2022/09/19 00:44:06;;;;;;;1.17;0.75;;;;;;;;;;5024932;28;20549;-65
2022/09/19 00:46:34;;;;;;;2.30;0.70;;;;;;;;;;5024614;28;20056;-64
2022/09/19 00:49:10;;;;;;;1.83;0.25;;;;;;;;;;5026758;28;20203;-64
2022/09/19 00:51:38;;;;;;;1.95;0.43;;;;;;;;;;5024648;28;20132;-64
2022/09/19 00:54:09;;;;;;;1.92;0.50;;;;;;;;;;5025551;28;20052;-64
2022/09/19 00:56:36;;;;;;;1.02;0.50;;;;;;;;;;5026099;28;20050;-64
2022/09/19 00:59:02;;;;;;;1.33;0.28;;;;;;;;;;5025379;28;20160;-64
2022/09/19 01:01:28;;;;;;;2.47;0.50;;;;;;;;;;5026191;28;20041;-64
2022/09/19 01:03:55;;;;;;;3.28;0.82;;;;;;;;;;5026290;28;20631;-64
2022/09/19 01:06:21;;;;;;;;;;;;;;;;;;5025293;28;20511;-64
2022/09/19 01:08:47;;;;;;;;;;;;;;;;;;5026798;28;19921;-64
2022/09/19 01:11:12;;;;;;;;;;;;;;;;;;5024134;28;19925;-64
2022/09/19 01:13:38;;;;;;;;;;;;;;;;;;5024078;28;20971;-64
2022/09/19 01:16:04;;;;;;;;;;;;;;;;;;5025400;28;19925;-64
2022/09/19 01:18:30;;;;;;;;;;;;;;;;;;5023896;28;19983;-65
2022/09/19 01:20:56;;;;;;;;;;;;;;;;;;5026017;28;19921;-64
2022/09/19 01:23:22;;;;;;;;;;;;;;;;;;5025857;28;20414;-65
2022/09/19 01:25:48;;;;;;;;;;;;;;;;;;5025283;28;19921;-64
2022/09/19 01:28:17;;;;;;;;;;;;;;;;;;5023713;28;19969;-65
2022/09/19 01:30:43;;;;;;;;;;;;;;;;;;5025051;28;19928;-64
2022/09/19 01:33:10;;;;;;;;;;;;;;;;;;5023369;28;19929;-65
2022/09/19 01:35:37;;;;;;;;;;;;;;;;;;5025207;28;20024;-65
2022/09/19 01:38:03;;;;;;;;;;;;;;;;;;5024535;28;20296;-65
2022/09/19 01:40:29;;;;;;;;;;;;;;;;;;5024930;28;19936;-65
2022/09/19 01:42:55;;;;;;;;;;;;;;;;;;5025243;28;19932;-64
2022/09/19 01:45:21;;;;;;;;;;;;;;;;;;5025896;28;19925;-65
2022/09/19 01:47:47;;;;;;;;;;;;;;;;;;5024833;28;20019;-65
2022/09/19 01:50:13;;;;;;;;;;;;;;;;;;5024542;28;20012;-65
2022/09/19 01:52:39;;;;;;;;;;;;;;;;;;5024428;28;20533;-65
2022/09/19 01:55:06;;;;;;;;;;;;;;;;;;5024429;28;19932;-65
2022/09/19 01:57:32;;;;;;;;;;;;;;;;;;5024525;28;20334;-65
2022/09/19 01:59:57;;;;;;;;;;;;;;;;;;5025791;28;19928;-65
2022/09/19 02:02:23;;;;;;;;;;;;;;;;;;5024279;28;19928;-65
2022/09/19 02:04:49;;;;;;;;;;;;;;;;;;5026019;28;20460;-64
2022/09/19 02:07:15;;;;;;;;;;;;;;;;;;5024592;28;20362;-64
2022/09/19 02:09:41;;;;;;;;;;;;;;;;;;5024972;28;19927;-64
2022/09/19 02:12:07;;;;;;;;;;;;;;;;;;5024350;28;19921;-64
2022/09/19 02:14:33;;;;;;;;;;;;;;;;;;5023480;28;20279;-64
2022/09/19 02:17:02;;;;;;;;;;;;;;;;;;5024718;28;20399;-64
2022/09/19 02:19:29;;;;;;;;;;;;;;;;;;5024952;28;19924;-64
2022/09/19 02:21:55;;;;;;;;;;;;;;;;;;5023759;28;19929;-64
2022/09/19 02:24:21;;;;;;;;;;;;;;;;;;5024294;28;19943;-64
2022/09/19 02:26:51;;;;;;;;;;;;;;;;;;5025223;28;20318;-65
2022/09/19 02:29:20;;;;;;;;;;;;;;;;;;5024687;28;19983;-64
2022/09/19 02:31:46;;;;;;;;;;;;;;;;;;5023481;28;20252;-64
2022/09/19 02:34:12;;;;;;;;;;;;;;;;;;5024340;28;19928;-64
2022/09/19 02:36:38;;;;;;;;;;;;;;;;;;5024945;28;19940;-64
2022/09/19 02:39:04;;;;;;;;;;;;;;;;;;5022648;28;19925;-64
2022/09/19 02:41:30;;;;;;;;;;;;;;;;;;5024479;28;19925;-64
2022/09/19 02:43:57;;;;;;;;;;;;;;;;;;5025028;28;19924;-64
2022/09/19 02:46:26;;;;;;;;;;;;;;;;;;5023951;28;19921;-64
2022/09/19 02:48:52;;;;;;;;;;;;;;;;;;5021973;28;19971;-64
2022/09/19 02:51:18;;;;;;;;;;;;;;;;;;5022054;28;20347;-64
2022/09/19 02:53:44;;;;;;;;;;;;;;;;;;5022411;28;19921;-64
2022/09/19 02:56:13;;;;;;;1.50;0.45;;;;;;;;;;5023849;28;19925;-64
2022/09/19 02:58:46;;;;;;;1.08;0.40;;;;;;;;;;5023252;28;20454;-64
2022/09/19 03:01:15;;;;;;;0.77;0.20;;;;;;;;;;5023583;28;20133;-64
2022/09/19 03:06:29;;;;;;;;;;;;;;;;;;5023690;28;19929;-64
2022/09/19 03:08:55;;;;;;;;;;;;;;;;;;5022850;28;20562;-65
2022/09/19 03:11:22;;;;;;;;;;;;;;;;;;5022985;28;19957;-64
2022/09/19 03:13:48;;;;;;;0.73;0.20;;;;;;;;;;5023968;28;19928;-64
2022/09/19 03:16:17;;;;;;;1.58;0.30;;;;;;;;;;5023265;28;20045;-64
2022/09/19 03:18:46;;;;;;;2.17;0.55;;;;;;;;;;5023815;28;20047;-64
2022/09/19 03:21:12;;;;;;;0.75;0.38;;;;;;;;;;5020762;28;20659;-64
2022/09/19 03:23:41;;;;;;;1.40;0.47;;;;;;;;;;5023602;28;20073;-64
2022/09/19 03:26:12;;;;;;;4.53;0.82;;;;;;;;;;5022758;28;20052;-64
2022/09/19 03:28:38;;;;;;;4.88;1.20;;;;;;;;;;5021739;28;20057;-64
2022/09/19 03:31:04;;;;;;;2.97;0.90;;;;;;;;;;5019844;28;20567;-64
2022/09/19 03:33:30;;;;;;;;;;;;;;;;;;5037850;28;20068;-64
2022/09/19 03:35:59;;;;;;;;;;;;;;;;;;5024352;28;19925;-64
2022/09/19 03:38:26;;;;;;;5.35;1.23;;;;;;;;;;5022128;28;19932;-64
2022/09/19 03:40:52;;;;;;;1.27;0.52;;;;;;;;;;5023264;28;20115;-64
2022/09/19 03:43:20;;;;;;;1.98;0.32;;;;;;;;;;5023033;28;20049;-64
2022/09/19 03:45:46;;;;;;;;;;;;;;;;;;5024511;28;20520;-64
2022/09/19 03:48:11;;;;;;;;;;;;;;;;;;5021531;28;19978;-64
2022/09/19 03:50:37;;;;;;;;;;;;;;;;;;5024007;28;19925;-63
2022/09/19 03:53:06;;;;;;;1.80;0.50;;;;;;;;;;5023361;28;20071;-64
2022/09/19 03:55:32;;;;;;;3.45;1.10;;;;;;;;;;5022480;28;20106;-64
2022/09/19 03:57:58;;;;;;;5.63;1.48;;;;;;;;;;5023620;28;20049;-64
2022/09/19 04:00:24;;;;;;;2.58;1.00;;;;;;;;;;5022332;28;20042;-64
2022/09/19 04:02:52;;;;;;;4.70;1.38;;;;;;;;;;5021473;28;20111;-64
2022/09/19 04:05:18;;;;;;;4.82;1.13;;;;;;;;;;5020927;28;20049;-64
2022/09/19 04:07:44;;;;;;;2.55;0.90;;;;;;;;;;5023287;28;20645;-64
2022/09/19 04:10:10;;;;;;;;;;;;;;;;;;5021300;28;20347;-64
2022/09/19 04:12:36;;;;;;;;;;;;;;;;;;5021693;28;20087;-64
2022/09/19 04:15:02;;;;;;;;;;;;;;;;;;5022240;28;19925;-64
2022/09/19 04:17:28;;;;;;;;;;;;;;;;;;5021175;28;19952;-64
2022/09/19 04:19:54;;;;;;;;;;;;;;;;;;5022669;28;20381;-64
2022/09/19 04:22:21;;;;;;;;;;;;;;;;;;5023067;28;20030;-64
2022/09/19 04:24:48;;;;;;;;;;;;;;;;;;5023453;28;19931;-64
2022/09/19 04:27:13;;;;;;;;;;;;;;;;;;5022705;28;20012;-64
2022/09/19 04:29:40;;;;;;;;;;;;;;;;;;5023341;28;20083;-64
2022/09/19 04:32:06;;;;;;;;;;;;;;;;;;5023155;28;19921;-64
2022/09/19 04:34:33;;;;;;;;;;;;;;;;;;5023134;28;19932;-64
2022/09/19 04:36:59;;;;;;;;;;;;;;;;;;5026069;28;19931;-64
2022/09/19 04:39:25;;;;;;;;;;;;;;;;;;5026093;28;20279;-65
2022/09/19 04:41:52;;;;;;;;;;;;;;;;;;5026116;28;19921;-64
2022/09/19 04:44:18;;;;;;;;;;;;;;;;;;5025136;28;20394;-64
2022/09/19 04:46:46;;;;;;;;;;;;;;;;;;5023822;28;19929;-64
2022/09/19 04:49:13;;;;;;;;;;;;;;;;;;5024847;28;19924;-64
2022/09/19 04:51:38;;;;;;;;;;;;;;;;;;5026447;28;19975;-64
2022/09/19 04:54:05;;;;;;;;;;;;;;;;;;5025012;28;19928;-65
2022/09/19 04:56:31;;;;;;;;;;;;;;;;;;5026167;28;20429;-64
2022/09/19 04:58:59;;;;;;;;;;;;;;;;;;5025032;28;19925;-64
2022/09/19 05:01:25;;;;;;;;;;;;;;;;;;5022797;28;19924;-64
2022/09/19 05:03:51;;;;;;;;;;;;;;;;;;5026727;28;19917;-64
2022/09/19 05:06:17;;;;;;;;;;;;;;;;;;5024904;28;20457;-64
2022/09/19 05:08:43;;;;;;;;;;;;;;;;;;5026748;28;19956;-64
2022/09/19 05:11:10;;;;;;;1.00;0.20;;;;;;;;;;5022381;28;19929;-64
2022/09/19 05:13:38;;;;;;;1.02;0.30;;;;;;;;;;5025332;28;20099;-64
2022/09/19 05:16:04;;;;;;;1.80;0.43;;;;;;;;;;5026033;28;20045;-64
2022/09/19 05:18:34;;;;;;;2.15;0.50;;;;;;;;;;5025035;28;20049;-64
2022/09/19 05:21:03;;;;;;;1.65;0.80;;;;;;;;;;5023952;28;20062;-64
2022/09/19 05:23:29;;;;;;;;;;;;;;;;;;5022311;28;20562;-64
2022/09/19 05:25:55;;;;;;;;;;;;;;;;;;5025177;28;19924;-64
2022/09/19 05:28:23;;;;;;;;;;;;;;;;;;5023347;28;20379;-64
2022/09/19 05:30:55;;;;;;;;;;;;;;;;;;5025425;28;19943;-64
2022/09/19 05:33:25;;;;;;;;;;;;;;;;;;5023154;28;19930;-64
2022/09/19 05:35:51;;;;;;;;;;;;;;;;;;5025706;28;19921;-65
2022/09/19 05:38:17;;;;;;;;;;;;;;;;;;5023022;28;19974;-65
2022/09/19 05:40:43;;;;;;;;;;;;;;;;;;5024070;28;19921;-65
2022/09/19 05:43:09;;;;;;;;;;;;;;;;;;5023538;28;20376;-65
2022/09/19 05:45:35;;;;;;;;;;;;;;;;;;5022478;28;19925;-65
2022/09/19 05:48:01;;;;;;;;;;;;;;;;;;5022435;28;20004;-65
2022/09/19 05:50:27;;;;;;;;;;;;;;;;;;5022954;28;20036;-65
2022/09/19 05:55:38;;;;;;;;;;;;;;;;;;5023936;28;19964;-65
2022/09/19 05:58:06;;;;;;;;;;;;;;;;;;5020952;28;20287;-66
2022/09/19 06:00:32;;;;;;;;;;;;;;;;;;5022275;28;19936;-65
2022/09/19 06:03:00;;;;;;;;;;;;;;;;;;5024334;28;19917;-65
2022/09/19 06:05:26;;;;;;;;;;;;;;;;;;5023354;28;19956;-65
2022/09/19 06:07:51;;;;;;;;;;;;;;;;;;5025207;28;20398;-66
2022/09/19 06:10:17;;;;;;;;;;;;;;;;;;5020715;28;20393;-66
2022/09/19 06:12:43;;;;;;;;;;;;;;;;;;5024494;28;19921;-65
2022/09/19 06:15:09;;;;;;;;;;;;;;;;;;5024145;28;20696;-65
2022/09/19 06:17:35;;;;;;;;;;;;;;;;;;5022664;28;19921;-65
2022/09/19 06:20:01;;;;;;;;;;;;;;;;;;5022552;28;19967;-65
2022/09/19 06:22:29;;;;;;;3.95;1.13;;;;;;;;;;5022531;28;20011;-65
2022/09/19 06:24:55;;;;;;;2.55;0.93;;;;;;;;;;5023587;28;20053;-65
2022/09/19 06:27:21;;;;;;;4.38;1.23;;;;;;;;;;5022355;28;20368;-65
2022/09/19 06:29:47;;;;;;;3.45;1.27;;;;;;;;;;5023665;28;20499;-66
2022/09/19 06:32:13;;;;;;;2.33;0.85;;;;;;;;;;5021523;28;20064;-65
2022/09/19 06:34:39;;;;;;;1.65;0.40;;;;;;;;;;5021362;28;20357;-65
2022/09/19 06:37:05;;;;;;;1.65;0.63;;;;;;;;;;5022913;28;20139;-66
2022/09/19 06:39:31;;;;;;;3.50;0.80;;;;;;;;;;5022284;28;20045;-65
2022/09/19 06:41:57;;;;;;;2.03;0.60;;;;;;;;;;5022930;28;20046;-64
2022/09/19 06:44:24;;;;;;;2.88;0.63;;;;;;;;;;5020794;28;20226;-65
2022/09/19 06:46:50;;;;;;;3.22;0.80;;;;;;;;;;5022308;28;20041;-64
2022/09/19 06:49:16;;;;;;;3.92;0.85;;;;;;;;;;5022417;28;20621;-64
2022/09/19 06:51:42;;;;;;;2.50;0.77;;;;;;;;;;5022638;28;20226;-64
2022/09/19 06:54:08;;;;;;;4.40;1.40;;;;;;;;;;5022834;28;20152;-64
2022/09/19 06:56:34;;;;;;;4.28;0.80;;;;;;;;;;5022701;28;20081;-64
2022/09/19 06:59:00;;;;;;;1.80;0.50;;;;;;;;;;5020077;28;20124;-64
2022/09/19 07:01:26;;;;;;;2.90;0.85;;;;;;;;;;5016836;28;20121;-64
2022/09/19 07:03:52;;;;;;;4.10;0.80;;;;;;;;;;5021324;28;20996;-64
2022/09/19 07:06:18;;;;;;;4.30;1.45;;;;;;;;;;5020797;28;20055;-64
2022/09/19 07:08:44;;;;;;;3.30;0.60;;;;;;;;;;5024090;28;20438;-64
2022/09/19 07:11:10;;;;;;;3.10;1.08;;;;;;;;;;5021607;28;20045;-64
2022/09/19 07:13:36;;;;;;;2.17;0.80;;;;;;;;;;5017097;28;20554;-64
2022/09/19 07:16:03;;;;;;;2.30;0.63;;;;;;;;;;5023131;28;20136;-63
2022/09/19 07:18:37;;;;;;;3.35;0.95;;;;;;;;;;5022475;28;20067;-64
2022/09/19 07:21:03;;;;;;;1.33;0.40;;;;;;;;;;5024091;28;20126;-64
2022/09/19 07:23:30;;;;;;;0.68;0.45;;;;;;;;;;5018602;28;20041;-64
2022/09/19 07:25:56;;;;;;;1.95;0.82;;;;;;;;;;5021643;28;20049;-64
2022/09/19 07:28:22;;;;;;;3.75;0.82;;;;;;;;;;5022970;28;20049;-64
2022/09/19 07:30:49;;;;;;;0.55;0.30;;;;;;;;;;5023654;28;20049;-64
2022/09/19 07:33:17;;;;;;;1.15;0.50;;;;;;;;;;5021433;28;20045;-64
2022/09/19 07:35:43;;;;;;;1.13;0.28;;;;;;;;;;5023071;28;20112;-64
2022/09/19 07:38:17;;;;;;;0.88;0.28;;;;;;;;;;5023288;28;20064;-64
2022/09/19 07:40:43;;;;;;;0.70;0.15;;;;;;;;;;5023198;28;20045;-64
2022/09/19 07:43:09;;;;;;;;;;;;;;;;;;5023792;28;20052;-63
2022/09/19 07:45:36;;;;;;;1.75;0.10;;;;;;;;;;5022056;28;20308;-64
2022/09/19 07:48:05;;;;;;;0.00;0.00;;;;;;;;;;5022715;28;20128;-65
2022/09/19 07:50:32;;;;;;;0.55;0.20;;;;;;;;;;5019285;28;20160;-65
2022/09/19 07:52:58;;;;;;;;;;;;;;;;;;5018454;28;20115;-65
2022/09/19 07:55:24;;;;;;;1.45;0.35;;;;;;;;;;5022344;28;20367;-65
2022/09/19 07:57:51;;;;;;;0.20;0.15;;;;;;;;;;5024261;28;20107;-64
2022/09/19 08:00:17;;;;;;;0.25;0.15;;;;;;;;;;5023919;28;20048;-72
2022/09/19 08:02:43;;;;;;;3.20;0.77;;;;;;;;;;5022103;28;20144;-71
2022/09/19 08:05:09;;;;;;;4.88;0.55;;;;;;;;;;5024028;28;20099;-68
2022/09/19 08:07:35;;;;;;;2.90;0.85;;;;;;;;;;5023668;28;20085;-67
2022/09/19 08:10:02;;;;;;;3.30;0.60;;;;;;;;;;5023431;28;20052;-66
2022/09/19 08:12:30;;;;;;;3.60;1.02;;;;;;;;;;5026076;28;20076;-68
2022/09/19 08:14:56;;;;;;;6.10;1.02;;;;;;;;;;5024616;28;20133;-67
2022/09/19 08:17:22;;;;;;;1.30;0.52;;;;;;;;;;5023764;28;20503;-67
2022/09/19 08:19:48;;;;;;;2.95;1.10;;;;;;;;;;5025918;28;20048;-67
2022/09/19 08:22:15;;;;;;;2.17;0.80;;;;;;;;;;5022459;28;20325;-67
2022/09/19 08:24:41;;;;;;;2.47;0.90;;;;;;;;;;5024723;28;20493;-67
2022/09/19 08:27:08;;;;;;;4.50;1.02;;;;;;;;;;5019443;28;20103;-66
2022/09/19 08:29:37;;;;;;;4.22;1.58;;;;;;;;;;5023603;28;20293;-68
2022/09/19 08:32:03;;;;;;;2.63;0.93;;;;;;;;;;5024369;28;20054;-67
2022/09/19 08:34:29;;;;;;;4.93;1.10;;;;;;;;;;5025504;28;20051;-67
2022/09/19 08:36:58;;;;;;;1.63;0.57;;;;;;;;;;5027030;28;20045;-68
2022/09/19 08:39:25;;;;;;;0.93;0.70;;;;;;;;;;5024871;28;20059;-67
2022/09/19 08:41:54;;;;;;;2.72;0.88;;;;;;;;;;5026315;28;20056;-67
2022/09/19 08:44:39;;;;;;;4.40;0.70;;;;;;;;;;5023797;28;20413;-67
2022/09/19 08:47:13;;;;;;;1.63;0.70;;;;;;;;;;5019416;28;20041;-67
2022/09/19 08:49:43;;;;;;;1.95;0.70;;;;;;;;;;5023518;28;20057;-67
2022/09/19 08:52:12;;;;;;;1.60;0.60;;;;;;;;;;5023395;28;20083;-68
2022/09/19 08:54:40;;;;;;;7.60;1.40;;;;;;;;;;5025208;28;20048;-68
2022/09/19 08:57:13;;;;;;;8.45;1.65;;;;;;;;;;5022174;28;20132;-67
2022/09/19 08:59:39;;;;;;;9.35;2.25;;;;;;;;;;5023634;28;20289;-67
2022/09/19 09:02:16;;;;;;;4.88;1.05;;;;;;;;;;5026379;28;20439;-67
2022/09/19 09:04:42;;;;;;;2.53;1.45;;;;;;;;;;5022599;28;20616;-66
2022/09/19 09:07:16;;;;;;;4.18;1.20;;;;;;;;;;5021499;28;20427;-68
2022/09/19 09:09:42;;;;;;;1.90;0.60;;;;;;;;;;5022412;28;20074;-66
2022/09/19 09:12:08;;;;;;;4.45;1.50;;;;;;;;;;5023233;28;20152;-67
2022/09/19 09:14:47;;;;;;;7.53;1.83;;;;;;;;;;5013837;28;20571;-68
2022/09/19 09:17:27;;;;;;;5.72;1.83;;;;;;;;;;5024160;28;20404;-67
2022/09/19 09:19:53;;;;;;;7.78;1.83;;;;;;;;;;5025026;28;20077;-67
2022/09/19 09:22:25;;;;;;;6.25;1.27;;;;;;;;;;5022607;28;20108;-67
2022/09/19 09:25:05;;;;;;;7.95;2.20;;;;;;;;;;5026490;28;20045;-67
2022/09/19 09:27:35;;;;;;;6.57;1.55;;;;;;;;;;5025829;28;20045;-67
2022/09/19 09:30:04;;;;;;;3.78;1.08;;;;;;;;;;5026795;28;20045;-67
2022/09/19 09:32:33;;;;;;;4.40;1.13;;;;;;;;;;5023928;28;20411;-68
2022/09/19 09:35:06;;;;;;;9.48;1.65;;;;;;;;;;5025476;28;20603;-68
2022/09/19 09:37:40;;;;;;;7.35;1.42;;;;;;;;;;5024298;28;20073;-68
2022/09/19 09:40:13;;;;;;;2.70;1.17;;;;;;;;;;5026123;28;20146;-68
2022/09/19 09:42:42;;;;;;;3.03;0.77;;;;;;;;;;5034320;28;20059;-65
2022/09/19 09:45:14;;;;;;;3.42;1.02;;;;;;;;;;5024964;28;20045;-65
2022/09/19 09:47:51;;;;;;;1.98;0.93;;;;;;;;;;5015011;28;20132;-67
2022/09/19 09:50:23;;;;;;;4.10;0.80;;;;;;;;;;5024572;28;20203;-67
2022/09/19 09:53:10;;;;;;;1.58;0.40;;;;;;;;;;5026045;28;20530;-67
2022/09/19 09:58:26;;;;;;;1.83;0.45;;;;;;;;;;5024604;28;20064;-67
2022/09/19 10:03:52;;;;;;;1.38;0.68;;;;;;;;;;5023242;28;20144;-67
2022/09/19 10:06:32;;;;;;;1.63;0.80;;;;;;;;;;5025695;28;20451;-67
2022/09/19 10:09:01;;;;;;;1.95;0.63;;;;;;;;;;5022956;28;20053;-67
2022/09/19 10:11:40;;;;;;;4.03;0.75;;;;;;;;;;5025591;28;20057;-68
2022/09/19 10:14:14;;;;;;;1.38;0.63;;;;;;;;;;5025772;28;20054;-67
2022/09/19 10:16:46;;;;;;;1.83;0.70;;;;;;;;;;5024576;28;20057;-68
2022/09/19 10:19:27;;;;;;;1.48;0.50;;;;;;;;;;5019285;28;20058;-66
2022/09/19 10:21:56;;;;;;;3.80;1.00;;;;;;;;;;5026337;28;20054;-67
2022/09/19 10:24:43;;;;;;;2.90;1.23;;;;;;;;;;5024744;28;20061;-68
2022/09/19 10:27:15;;;;;;;3.83;1.10;;;;;;;;;;5026178;28;20056;-68
2022/09/19 10:29:50;;;;;;;6.78;1.35;;;;;;;;;;5025739;28;20124;-68
2022/09/19 10:32:19;;;;;;;8.88;1.98;;;;;;;;;;5028864;28;20053;-68
2022/09/19 10:34:45;;;;;;;3.95;0.75;;;;;;;;;;5028688;28;20041;-67
2022/09/19 10:37:14;;;;;;;4.45;1.48;;;;;;;;;;5027553;28;20041;-69
2022/09/19 10:39:44;;;;;;;3.08;1.00;;;;;;;;;;5025500;28;20041;-68
2022/09/19 10:42:26;;;;;;;5.40;1.02;;;;;;;;;;5019803;28;20127;-70
2022/09/19 10:44:52;;;;;;;3.60;1.10;;;;;;;;;;5028304;28;20527;-70
2022/09/19 10:47:18;;;;;;;5.88;1.70;;;;;;;;;;5028579;28;20124;-69
2022/09/19 10:49:47;;;;;;;8.52;1.85;;;;;;;;;;5028333;28;20049;-69
2022/09/19 10:52:21;;;;;;;10.27;2.03;;;;;;;;;;5028093;28;20151;-71
2022/09/19 10:54:52;;;;;;;4.72;1.70;;;;;;;;;;5028669;28;20048;-70
2022/09/19 10:57:37;;;;;;;4.75;1.40;;;;;;;;;;5019523;28;20049;-70
2022/09/19 11:00:04;;;;;;;3.70;1.27;;;;;;;;;;5006011;28;20057;-70
2022/09/19 11:02:31;;;;;;;3.33;0.80;;;;;;;;;;5021746;28;20049;-70
2022/09/19 11:05:03;;;;;;;3.67;0.90;;;;;;;;;;5025111;28;20056;-70
2022/09/19 11:07:34;;;;;;;3.90;1.02;;;;;;;;;;5025352;28;20045;-69
2022/09/19 11:10:04;;;;;;;4.78;1.50;;;;;;;;;;5025915;28;20053;-69
2022/09/19 11:12:33;;;;;;;2.33;1.20;;;;;;;;;;5023457;28;20057;-70
2022/09/19 11:14:59;;;;;;;4.47;1.15;;;;;;;;;;5025439;28;20049;-69
2022/09/19 11:17:29;;;;;;;2.88;0.60;;;;;;;;;;5025229;28;20672;-70
2022/09/19 11:20:08;;;;;;;3.67;0.93;;;;;;;;;;5025010;28;20124;-71
2022/09/19 11:22:51;;;;;;;8.98;1.55;;;;;;;;;;5025286;28;20037;-70
2022/09/19 11:25:30;;;;;;;4.05;1.10;;;;;;;;;;5024965;28;20499;-70
2022/09/19 11:27:56;;;;;;;2.95;0.95;;;;;;;;;;5025516;28;20041;-70
2022/09/19 11:30:26;;;;;;;3.47;0.73;;;;;;;;;;5025003;28;20706;-71
2022/09/19 11:33:07;;;;;;;3.20;1.10;;;;;;;;;;5024616;28;20056;-71
2022/09/19 11:35:38;;;;;;;6.30;1.55;;;;;;;;;;5039546;28;20441;-70
2022/09/19 11:38:15;;;;;;;4.05;1.20;;;;;;;;;;5044626;28;20053;-70
2022/09/19 11:41:00;;;;;;;3.15;1.17;;;;;;;;;;5025538;28;20049;-70
2022/09/19 11:43:38;;;;;;;4.75;0.82;;;;;;;;;;5023016;28;20045;-69
2022/09/19 11:46:06;;;;;;;5.65;0.90;;;;;;;;;;5025700;28;20049;-69
2022/09/19 11:48:54;;;;;;;2.40;0.98;;;;;;;;;;5027502;28;20664;-69
2022/09/19 11:51:39;;;;;;;2.08;0.77;;;;;;;;;;5027612;28;20050;-69
2022/09/19 11:54:14;;;;;;;2.75;0.95;;;;;;;;;;5027651;28;20048;-69
2022/09/19 11:56:48;;;;;;;2.67;0.73;;;;;;;;;;5029095;28;20061;-69
2022/09/19 11:59:26;;;;;;;8.25;1.48;;;;;;;;;;5028159;28;20045;-69
2022/09/19 12:02:11;;;;;;;4.38;1.67;;;;;;;;;;5028237;28;20800;-69
2022/09/19 12:05:00;;;;;;;4.97;1.20;;;;;;;;;;5028952;28;20637;-69
2022/09/19 12:07:36;;;;;;;6.95;1.40;;;;;;;;;;5026301;28;20054;-69
2022/09/19 12:10:15;;;;;;;11.13;1.92;;;;;;;;;;5027684;28;20061;-69
2022/09/19 12:12:42;;;;;;;6.15;1.42;;;;;;;;;;5028828;28;20049;-72
2022/09/19 12:15:19;;;;;;;4.38;1.00;;;;;;;;;;5027132;28;20504;-65
2022/09/19 12:17:50;;;;;;;4.97;1.13;;;;;;;;;;5026938;28;20052;-66
2022/09/19 12:20:23;;;;;;;4.70;0.90;;;;;;;;;;5026949;28;20041;-65
2022/09/19 12:22:53;;;;;;;3.85;1.00;;;;;;;;;;5027769;28;20519;-66
2022/09/19 12:25:25;;;;;;;3.17;1.00;;;;;;;;;;5028540;28;20049;-66
2022/09/19 12:27:53;;;;;;;4.28;1.02;;;;;;;;;;5028529;28;20053;-66
2022/09/19 12:30:23;;;;;;;3.42;1.10;;;;;;;;;;5027394;28;20069;-66
2022/09/19 12:32:49;;;;;;;9.30;1.42;;;;;;;;;;5027123;28;20104;-66
2022/09/19 12:35:35;;;;;;;4.50;1.23;;;;;;;;;;5027478;28;20080;-66
2022/09/19 12:38:20;;;;;;;5.30;1.60;;;;;;;;;;5026628;28;20041;-65
2022/09/19 12:40:50;;;;;;;4.70;1.10;;;;;;;;;;5027053;28;20051;-66
2022/09/19 12:43:16;;;;;;;5.30;1.30;;;;;;;;;;5027050;28;20049;-65
2022/09/19 12:45:45;;;;;;;4.63;1.23;;;;;;;;;;5028023;28;20057;-65
2022/09/19 12:48:20;;;;;;;2.63;1.20;;;;;;;;;;5015570;28;20514;-66
2022/09/19 12:50:54;;;;;;;3.67;1.13;;;;;;;;;;5019949;28;20053;-65
2022/09/19 12:53:36;;;;;;;4.30;1.23;;;;;;;;;;5023341;28;20063;-66
2022/09/19 12:56:07;;;;;;;9.23;2.00;;;;;;;;;;5024750;28;20045;-65
2022/09/19 12:58:45;;;;;;;9.40;2.00;;;;;;;;;;5009196;28;20038;-66
2022/09/19 13:01:17;;;;;;;8.77;2.28;;;;;;;;;;5013496;28;20053;-66
2022/09/19 13:03:47;;;;;;;7.13;1.48;;;;;;;;;;5020501;28;20048;-66
2022/09/19 13:06:20;;;;;;;3.60;1.40;;;;;;;;;;5021637;28;20049;-66
2022/09/19 13:08:52;;;;;;;8.80;1.45;;;;;;;;;;5016251;28;20054;-65
2022/09/19 13:11:24;;;;;;;4.93;1.00;;;;;;;;;;5020435;28;20064;-65
2022/09/19 13:13:56;;;;;;;4.07;1.20;;;;;;;;;;5021591;28;20061;-66
2022/09/19 13:16:28;;;;;;;4.22;1.17;;;;;;;;;;5016391;28;20184;-65
2022/09/19 13:24:35;;;;;;;3.33;1.10;;;;;;;;;;5006890;28;20054;-66
2022/09/19 13:27:04;;;;;;;1.05;0.68;;;;;;;;;;5006790;28;20400;-65
2022/09/19 13:29:31;;;;;;;4.20;0.88;;;;;;;;;;5014187;28;20056;-65
2022/09/19 13:31:58;;;;;;;3.63;0.80;;;;;;;;;;5018133;28;20098;-65
2022/09/19 13:34:33;;;;;;;3.17;0.93;;;;;;;;;;5015069;28;20527;-65
2022/09/19 13:37:19;;;;;;;4.25;1.10;;;;;;;;;;5017926;28;20103;-66
2022/09/19 13:39:47;;;;;;;6.07;1.33;;;;;;;;;;5026992;28;20046;-65
2022/09/19 13:42:16;;;;;;;6.05;1.58;;;;;;;;;;5017721;28;20129;-66
2022/09/19 13:44:49;;;;;;;6.70;1.77;;;;;;;;;;5007615;28;20133;-66
2022/09/19 13:47:26;;;;;;;2.83;1.02;;;;;;;;;;5006042;28;20480;-65
2022/09/19 13:50:07;;;;;;;3.30;1.30;;;;;;;;;;5006302;28;20057;-65
2022/09/19 13:52:42;;;;;;;6.40;1.50;;;;;;;;;;5006521;28;20065;-65
2022/09/19 13:55:16;;;;;;;3.67;1.10;;;;;;;;;;5005459;28;20139;-65
2022/09/19 13:57:43;;;;;;;5.80;1.27;;;;;;;;;;5011664;28;20569;-65
2022/09/19 14:00:15;;;;;;;8.13;1.67;;;;;;;;;;5010018;28;20369;-65
2022/09/19 14:02:59;;;;;;;3.28;1.17;;;;;;;;;;5005745;28;20054;-65
2022/09/19 14:05:25;;;;;;;4.65;1.10;;;;;;;;;;5006730;28;20053;-65
2022/09/19 14:07:54;;;;;;;6.03;1.35;;;;;;;;;;5011759;28;20069;-66
2022/09/19 14:10:20;;;;;;;7.30;1.63;;;;;;;;;;5023243;28;20053;-66
2022/09/19 14:12:46;;;;;;;3.20;1.05;;;;;;;;;;5008937;28;20058;-64
2022/09/19 14:15:32;;;;;;;2.25;1.00;;;;;;;;;;5023852;28;20076;-64
2022/09/19 14:18:10;;;;;;;4.72;1.23;;;;;;;;;;5019457;28;20056;-64
2022/09/19 14:20:48;;;;;;;3.97;1.33;;;;;;;;;;5012790;28;20030;-64
2022/09/19 14:23:18;;;;;;;4.88;1.60;;;;;;;;;;5014580;28;20034;-65
2022/09/19 14:25:54;;;;;;;3.83;1.10;;;;;;;;;;5020128;28;20443;-65
2022/09/19 14:28:26;;;;;;;5.60;1.15;;;;;;;;;;5017235;28;20056;-65
2022/09/19 14:30:52;;;;;;;10.07;1.85;;;;;;;;;;5017091;28;20959;-63
2022/09/19 14:33:37;;;;;;;3.03;0.60;;;;;;;;;;5019964;28;20724;-65
2022/09/19 14:36:09;;;;;;;4.68;1.17;;;;;;;;;;5019740;28;20451;-65
2022/09/19 14:38:35;;;;;;;;;;;;;;;;;;5022868;28;20567;-64
2022/09/19 14:41:08;;;;;;;3.47;0.77;;;;;;;;;;5021679;28;19944;-63
2022/09/19 14:43:37;;;;;;;5.47;1.23;;;;;;;;;;5022303;28;21513;-64
2022/09/19 14:46:20;;;;;;;4.43;1.13;;;;;;;;;;5018602;28;20037;-63
2022/09/19 14:48:53;;;;;;;1.63;0.88;;;;;;;;;;5010843;28;20136;-63
2022/09/19 14:51:40;;;;;;;6.85;1.65;;;;;;;;;;5022664;28;20060;-63
2022/09/19 14:54:26;;;;;;;3.20;0.82;;;;;;;;;;5018907;28;20635;-61
2022/09/19 14:57:10;;;;;;;1.85;0.60;;;;;;;;;;5014981;28;20053;-63
2022/09/19 14:59:36;;;;;;;4.47;1.15;;;;;;;;;;5014730;28;20095;-63
2022/09/19 15:02:21;;;;;;;6.13;1.13;;;;;;;;;;5014306;28;20080;-63
2022/09/19 15:04:51;;;;;;;2.42;1.00;;;;;;;;;;5022989;28;20049;-63
2022/09/19 15:07:18;;;;;;;4.25;0.90;;;;;;;;;;5037663;28;20129;-63
2022/09/19 15:09:44;;;;;;;4.28;1.05;;;;;;;;;;5018380;28;20447;-63
2022/09/19 15:12:21;;;;;;;1.33;0.80;;;;;;;;;;5016599;28;20791;-63
2022/09/19 15:14:48;;;;;;;5.65;0.90;;;;;;;;;;5019405;28;20510;-63
2022/09/19 15:17:14;;;;;;;5.82;1.73;;;;;;;;;;5016452;28;20033;-63
2022/09/19 15:19:44;;;;;;;6.35;0.98;;;;;;;;;;5014542;28;20046;-63
2022/09/19 15:22:23;;;;;;;7.75;1.40;;;;;;;;;;5019993;28;20505;-63
2022/09/19 15:24:50;;;;;;;3.85;0.93;;;;;;;;;;5020541;28;20077;-63
2022/09/19 15:27:18;;;;;;;3.78;1.35;;;;;;;;;;5015564;28;20038;-63
2022/09/19 15:29:47;;;;;;;1.35;0.65;;;;;;;;;;5016900;28;20051;-63
2022/09/19 15:32:25;;;;;;;2.20;0.85;;;;;;;;;;5016997;28;20044;-63
2022/09/19 15:34:53;;;;;;;4.63;1.08;;;;;;;;;;5017137;28;20054;-63
2022/09/19 15:37:20;;;;;;;4.65;0.95;;;;;;;;;;5015701;28;20087;-63
2022/09/19 15:39:47;;;;;;;2.40;0.68;;;;;;;;;;5014163;28;20545;-62
2022/09/19 15:42:13;;;;;;;2.65;1.00;;;;;;;;;;5016547;28;20500;-63
2022/09/19 15:44:42;;;;;;;1.75;0.73;;;;;;;;;;5014173;28;20525;-63
2022/09/19 15:47:12;;;;;;;3.83;0.85;;;;;;;;;;5015840;28;20053;-62
2022/09/19 15:49:41;;;;;;;2.15;0.55;;;;;;;;;;5012928;28;20052;-62